Time;durP1;ratioP1;P1;durP2;ratioP2;P2;SDS_P1;SDS_P2;PMS_P1;PMS_P2;Temp;Humidity;BMP_temperature;BMP_pressure;BME280_temperature;BME280_humidity;BME280_pressure;Samples;Min_cycle;Max_cycle;Signal;HPM_P1;HPM_P2
2021/03/20 00:01:42;;;;;;;27.40;20.20;;;;;;;5.00;54.25;93743.47;5014037;28;20060;-88
2021/03/20 00:04:10;;;;;;;27.10;19.75;;;;;;;4.68;54.01;93699.06;5009442;28;20037;-87
2021/03/20 00:06:41;;;;;;;24.05;16.90;;;;;;;4.76;54.29;93722.13;5017986;28;20117;-88
2021/03/20 00:09:12;;;;;;;24.20;18.08;;;;;;;4.34;54.81;93672.44;4997985;28;20033;-88
2021/03/20 00:11:39;;;;;;;30.95;20.88;;;;;;;4.66;55.24;93740.41;4982719;28;20490;-88
2021/03/20 00:14:10;;;;;;;23.70;17.20;;;;;;;4.39;55.33;93681.38;5010383;28;20045;-88
2021/03/20 00:16:41;;;;;;;27.55;19.83;;;;;;;4.44;55.68;93684.00;5013609;28;20049;-89
2021/03/20 00:19:07;;;;;;;28.63;20.60;;;;;;;4.44;56.84;93702.31;5000636;28;20314;-89
2021/03/20 00:21:35;;;;;;;24.23;17.45;;;;;;;4.66;56.42;93719.47;5017230;28;20095;-87
2021/03/20 00:24:03;;;;;;;24.85;16.08;;;;;;;5.15;55.07;93761.06;5026478;28;20073;-88
2021/03/20 00:26:28;;;;;;;23.02;17.08;;;;;;;4.78;55.18;93690.47;5013332;28;20034;-89
2021/03/20 00:28:54;;;;;;;24.00;15.63;;;;;;;5.03;55.37;93731.69;4998234;28;20050;-88
2021/03/20 00:31:20;;;;;;;22.70;16.05;;;;;;;4.87;54.77;93709.09;4994192;28;20033;-87
2021/03/20 00:33:46;;;;;;;27.13;16.73;;;;;;;5.21;55.20;93766.09;4997944;28;20042;-89
2021/03/20 00:36:16;;;;;;;24.17;16.80;;;;;;;5.05;54.96;93732.22;4986953;28;20056;-86
2021/03/20 00:38:42;;;;;;;22.92;16.42;;;;;;;5.26;55.35;93752.22;5015010;28;20152;-88
2021/03/20 00:41:09;;;;;;;23.05;15.35;;;;;;;4.94;55.27;93710.44;4998295;28;20099;-89
2021/03/20 00:43:39;;;;;;;24.10;16.42;;;;;;;4.79;55.40;93678.94;5007209;28;20045;-88
2021/03/20 00:46:08;;;;;;;24.13;15.00;;;;;;;5.21;55.46;93745.13;4988012;28;20033;-88
2021/03/20 00:48:37;;;;;;;18.75;13.25;;;;;;;4.74;55.48;93684.19;5012414;28;20033;-85
2021/03/20 00:51:07;;;;;;;21.70;12.95;;;;;;;4.88;55.51;93715.91;5014278;28;20034;-88
2021/03/20 00:53:33;;;;;;;18.17;14.05;;;;;;;4.76;55.41;93701.19;5014649;28;20543;-89
2021/03/20 00:56:02;;;;;;;16.90;12.05;;;;;;;4.59;55.33;93684.88;5011791;28;20041;-87
2021/03/20 00:58:35;;;;;;;15.55;12.20;;;;;;;4.77;55.34;93710.63;5014401;28;20041;-88
2021/03/20 01:01:08;;;;;;;17.35;13.00;;;;;;;4.92;55.56;93740.53;5008913;28;20031;-88
2021/03/20 01:03:37;;;;;;;16.13;11.93;;;;;;;4.91;55.43;93754.66;4997412;28;20417;-89
2021/03/20 01:06:05;;;;;;;18.02;11.55;;;;;;;4.46;55.33;93685.31;5009170;28;20131;-88
2021/03/20 01:08:32;;;;;;;18.17;11.98;;;;;;;4.34;55.52;93669.03;5013222;28;20048;-87
2021/03/20 01:10:57;;;;;;;15.65;12.10;;;;;;;4.66;55.51;93737.78;5029192;28;20449;-88
2021/03/20 01:13:23;;;;;;;15.73;11.82;;;;;;;4.59;56.02;93742.47;5009582;28;20160;-89
2021/03/20 01:15:48;;;;;;;20.30;13.00;;;;;;;4.12;57.00;93681.44;5000332;28;20017;-89
2021/03/20 01:18:19;;;;;;;17.95;13.18;;;;;;;4.56;57.58;93753.41;5010206;28;20033;-88
2021/03/20 01:20:45;;;;;;;21.20;14.70;;;;;;;4.58;58.27;93743.50;5015192;28;20077;-87
2021/03/20 01:23:11;;;;;;;17.98;13.93;;;;;;;4.62;57.92;93741.16;4994532;28;20124;-88
2021/03/20 01:25:37;;;;;;;21.02;16.23;;;;;;;4.68;57.43;93746.19;4994788;28;20068;-87
2021/03/20 01:28:03;;;;;;;24.63;16.52;;;;;;;4.65;57.34;93736.19;5016174;28;20025;-85
2021/03/20 01:30:35;;;;;;;26.30;17.90;;;;;;;4.74;57.25;93734.69;5014050;28;20034;-88
2021/03/20 01:33:01;;;;;;;31.10;19.40;;;;;;;4.53;56.98;93709.44;5011621;28;20073;-87
2021/03/20 01:35:27;;;;;;;30.17;19.05;;;;;;;4.33;56.52;93670.06;5010777;28;20147;-87
2021/03/20 01:37:53;;;;;;;31.33;20.08;;;;;;;4.58;56.66;93721.78;5010617;28;20123;-87
2021/03/20 01:40:35;;;;;;;33.88;20.90;;;;;;;4.70;57.00;93744.09;4998792;28;20473;-87
2021/03/20 01:43:01;;;;;;;29.98;18.95;;;;;;;4.62;57.44;93752.41;4997813;28;20021;-87
2021/03/20 01:45:31;;;;;;;25.80;17.52;;;;;;;4.69;57.02;93754.81;5010047;28;20531;-88
2021/03/20 01:48:05;;;;;;;27.00;18.63;;;;;;;4.68;58.31;93764.50;5004806;28;20045;-87
2021/03/20 01:50:35;;;;;;;29.63;19.25;;;;;;;4.42;59.14;93736.59;4997165;28;20476;-87
2021/03/20 01:53:13;;;;;;;28.38;18.33;;;;;;;4.24;58.04;93702.97;4993647;28;20061;-88
2021/03/20 01:55:40;;;;;;;24.95;18.15;;;;;;;4.49;57.58;93718.84;5012047;28;20037;-88
2021/03/20 01:58:06;;;;;;;30.52;18.75;;;;;;;4.73;57.23;93756.69;5011054;28;20124;-86
2021/03/20 02:00:40;;;;;;;30.90;19.13;;;;;;;4.42;56.78;93696.53;5011237;28;20017;-87
2021/03/20 02:03:11;;;;;;;30.85;18.95;;;;;;;4.75;57.00;93761.66;5011077;28;20045;-87
2021/03/20 02:05:37;;;;;;;31.42;18.10;;;;;;;4.73;56.75;93754.06;5011730;28;20459;-88
2021/03/20 02:08:08;;;;;;;32.50;19.70;;;;;;;4.64;57.72;93750.31;5008184;28;20045;-85
2021/03/20 02:10:38;;;;;;;27.17;18.23;;;;;;;4.77;57.33;93759.56;5012955;28;20493;-88
2021/03/20 02:13:24;;;;;;;26.20;17.77;;;;;;;4.87;56.94;93758.84;4983325;28;20035;-88
2021/03/20 02:16:02;;;;;;;36.05;21.40;;;;;;;4.73;56.90;93740.19;5012823;28;20021;-87
2021/03/20 02:18:52;;;;;;;32.45;21.05;;;;;;;4.53;56.85;93704.22;5013181;28;20120;-88
2021/03/20 02:21:37;;;;;;;34.30;19.67;;;;;;;4.82;57.04;93745.72;4990219;28;20055;-88
2021/03/20 02:24:11;;;;;;;55.65;35.47;;;;;;;4.90;57.01;93747.84;4993634;28;20180;-88
2021/03/20 02:26:48;;;;;;;47.88;29.70;;;;;;;4.94;56.73;93754.94;5011583;28;20049;-87
2021/03/20 02:29:27;;;;;;;46.20;29.63;;;;;;;4.87;57.22;93753.59;5010585;28;20064;-88
2021/03/20 02:32:15;;;;;;;41.63;24.80;;;;;;;4.83;58.20;93757.78;5024410;28;20565;-88
2021/03/20 02:35:11;;;;;;;42.90;26.67;;;;;;;4.85;57.88;93758.28;4991407;28;20057;-88
2021/03/20 02:37:37;;;;;;;35.15;21.85;;;;;;;4.75;57.77;93759.81;5007260;28;20046;-89
2021/03/20 02:40:19;;;;;;;45.88;26.38;;;;;;;4.75;57.42;93757.19;5026371;28;20102;-88
2021/03/20 02:42:57;;;;;;;38.38;22.73;;;;;;;4.75;57.26;93759.03;5000763;28;20045;-87
2021/03/20 02:45:43;;;;;;;42.30;25.38;;;;;;;4.79;57.36;93760.88;4993405;28;20033;-86
2021/03/20 02:48:17;;;;;;;31.83;19.55;;;;;;;4.83;57.07;93760.41;5000743;28;22161;-88
2021/03/20 02:51:09;;;;;;;33.85;22.08;;;;;;;4.86;57.00;93757.25;5014603;28;20046;-89
2021/03/20 02:54:06;;;;;;;29.27;18.88;;;;;;;4.59;57.35;93729.38;5010334;28;20037;-88
2021/03/20 02:56:45;;;;;;;28.65;19.08;;;;;;;4.78;57.32;93756.72;4998849;28;20068;-88
2021/03/20 02:59:13;;;;;;;26.90;18.83;;;;;;;4.89;57.14;93767.25;4975252;28;20148;-89
2021/03/20 03:01:45;;;;;;;26.50;18.35;;;;;;;4.74;57.80;93760.09;5001585;28;20413;-89
2021/03/20 03:04:18;;;;;;;26.92;17.55;;;;;;;4.24;57.85;93695.13;5012728;28;20059;-87
2021/03/20 03:06:52;;;;;;;26.05;17.98;;;;;;;4.77;57.48;93759.56;5012402;28;20507;-89
2021/03/20 03:09:30;;;;;;;28.98;18.00;;;;;;;4.74;57.63;93760.84;4993288;28;20466;-88
2021/03/20 03:12:03;;;;;;;29.15;18.05;;;;;;;4.38;58.58;93725.06;5007971;28;20549;-88
2021/03/20 03:14:51;;;;;;;27.75;17.95;;;;;;;4.67;58.78;93765.53;4991641;28;20537;-88
2021/03/20 03:17:23;;;;;;;28.98;18.38;;;;;;;4.73;58.64;93769.78;4995542;28;20261;-88
2021/03/20 03:19:54;;;;;;;25.60;18.42;;;;;;;4.66;58.58;93748.25;5015576;28;20041;-88
2021/03/20 03:22:24;;;;;;;27.45;18.92;;;;;;;4.79;58.45;93755.66;5019170;28;20092;-88
2021/03/20 03:24:57;;;;;;;27.77;19.02;;;;;;;4.94;58.65;93767.25;5016462;28;20059;-88
2021/03/20 03:27:26;;;;;;;27.10;18.65;;;;;;;4.72;58.10;93725.50;5000595;28;20052;-89
2021/03/20 03:29:53;;;;;;;28.58;18.05;;;;;;;4.99;58.16;93760.22;5001213;28;20045;-88
2021/03/20 03:32:25;;;;;;;32.20;19.92;;;;;;;4.99;58.83;93762.81;4998671;28;20045;-88
2021/03/20 03:34:58;;;;;;;32.45;20.65;;;;;;;5.01;60.61;93766.00;5015240;28;20040;-87
2021/03/20 03:37:52;;;;;;;33.25;21.95;;;;;;;4.69;58.64;93718.94;4982337;28;20049;-88
2021/03/20 03:40:32;;;;;;;33.38;24.20;;;;;;;5.07;58.09;93779.91;4998015;28;20179;-88
2021/03/20 03:42:58;;;;;;;39.22;25.42;;;;;;;4.88;58.74;93755.19;5015856;28;20052;-88
2021/03/20 03:45:26;;;;;;;35.72;22.20;;;;;;;4.94;58.37;93754.16;5017576;28;20483;-87
2021/03/20 03:47:52;;;;;;;39.88;27.58;;;;;;;5.03;58.13;93770.97;5015149;28;20049;-88
2021/03/20 03:50:31;;;;;;;37.80;25.38;;;;;;;4.86;58.27;93752.03;5000519;28;20067;-85
2021/03/20 03:52:57;;;;;;;39.60;26.73;;;;;;;4.73;58.80;93727.09;5007065;28;20038;-88
2021/03/20 03:55:24;;;;;;;43.03;26.92;;;;;;;4.84;58.73;93733.19;5009743;28;20040;-88
2021/03/20 03:58:04;;;;;;;38.85;25.88;;;;;;;5.05;58.74;93767.06;4999825;28;20535;-88
2021/03/20 04:00:48;;;;;;;42.83;28.55;;;;;;;5.08;59.07;93760.53;4990975;28;20049;-87
2021/03/20 04:03:22;;;;;;;44.88;27.90;;;;;;;5.04;59.85;93764.69;4999081;28;20076;-87
2021/03/20 04:06:16;;;;;;;45.42;30.10;;;;;;;4.97;60.23;93764.13;4994887;28;20120;-88
2021/03/20 04:08:44;;;;;;;52.75;31.02;;;;;;;5.03;59.67;93760.50;4987066;28;20053;-87
2021/03/20 04:11:33;;;;;;;51.20;31.85;;;;;;;4.83;59.82;93735.00;5014036;28;20148;-86
2021/03/20 04:14:12;;;;;;;56.00;32.45;;;;;;;4.98;60.34;93765.72;5011983;28;20030;-86
2021/03/20 04:17:00;;;;;;;53.80;36.25;;;;;;;4.92;60.56;93758.88;5001484;28;20045;-87
2021/03/20 04:19:54;;;;;;;56.80;33.42;;;;;;;5.01;60.38;93760.75;4994060;28;20046;-86
2021/03/20 04:22:39;;;;;;;46.92;30.48;;;;;;;4.97;60.57;93766.75;5033047;28;20057;-88
2021/03/20 04:25:25;;;;;;;48.47;33.20;;;;;;;4.96;60.91;93768.59;5014445;28;20041;-88
2021/03/20 04:28:14;;;;;;;52.85;33.42;;;;;;;4.99;60.86;93768.06;5000875;28;20017;-87
2021/03/20 04:30:45;;;;;;;55.65;33.45;;;;;;;4.93;61.11;93756.00;5013837;28;20576;-88
2021/03/20 04:33:40;;;;;;;55.08;34.20;;;;;;;5.07;61.17;93758.94;4992594;28;20095;-87
2021/03/20 04:36:18;;;;;;;59.17;34.83;;;;;;;4.92;61.37;93748.41;5010318;28;20053;-85
2021/03/20 04:38:45;;;;;;;57.95;35.78;;;;;;;4.68;61.82;93722.63;5012707;28;20050;-88
2021/03/20 04:41:15;;;;;;;58.00;34.33;;;;;;;5.08;61.87;93768.38;5015231;28;20123;-88
2021/03/20 04:43:41;;;;;;;60.50;36.47;;;;;;;4.69;62.03;93711.09;5003474;28;20065;-88
2021/03/20 04:46:16;;;;;;;56.17;34.30;;;;;;;5.08;62.28;93763.16;5014683;28;20547;-88
2021/03/20 04:48:47;;;;;;;61.90;37.40;;;;;;;4.98;63.09;93757.88;5015318;28;20032;-88
2021/03/20 04:51:24;;;;;;;57.08;34.88;;;;;;;5.06;63.03;93762.59;4996840;28;20388;-88
2021/03/20 04:54:05;;;;;;;58.38;36.22;;;;;;;4.85;62.20;93703.31;5016663;28;20049;-87
2021/03/20 04:56:39;;;;;;;57.65;34.20;;;;;;;5.20;61.55;93756.66;4999120;28;20351;-88
2021/03/20 04:59:17;;;;;;;50.47;33.33;;;;;;;5.04;61.18;93728.81;5009627;28;20537;-88
2021/03/20 05:01:48;;;;;;;54.30;33.33;;;;;;;5.23;61.22;93755.34;5013782;28;20040;-88
2021/03/20 05:04:25;;;;;;;59.35;33.95;;;;;;;5.29;60.81;93762.19;5017065;28;20661;-88
2021/03/20 05:06:54;;;;;;;56.20;33.42;;;;;;;4.95;60.79;93708.59;5000863;28;20366;-88
2021/03/20 05:09:25;;;;;;;57.17;34.00;;;;;;;4.90;62.40;93708.56;4999325;28;20090;-87
2021/03/20 05:12:01;;;;;;;59.90;38.58;;;;;;;5.33;62.51;93773.72;5015621;28;20088;-88
2021/03/20 05:14:27;;;;;;;52.03;34.08;;;;;;;5.42;62.24;93764.34;4998918;28;20033;-88
2021/03/20 05:16:57;;;;;;;51.92;33.60;;;;;;;5.29;62.32;93759.56;5004456;28;20163;-88
2021/03/20 05:19:24;;;;;;;51.53;32.78;;;;;;;5.50;62.21;93779.56;5014432;28;20030;-88
2021/03/20 05:21:50;;;;;;;49.97;33.28;;;;;;;5.52;62.16;93780.06;5001153;28;20033;-87
2021/03/20 05:24:28;;;;;;;51.30;32.03;;;;;;;5.57;61.93;93780.09;5014135;28;20029;-88
2021/03/20 05:26:55;;;;;;;47.78;31.55;;;;;;;5.65;62.11;93776.97;4997859;28;20038;-87
2021/03/20 05:29:21;;;;;;;49.60;33.63;;;;;;;5.37;61.73;93747.81;5014360;28;20025;-88
2021/03/20 05:31:52;;;;;;;50.53;31.20;;;;;;;5.72;60.98;93783.81;5010867;28;20056;-87
2021/03/20 05:34:39;;;;;;;48.92;30.88;;;;;;;5.71;60.65;93784.88;5000290;28;20041;-87
2021/03/20 05:37:06;;;;;;;50.45;32.13;;;;;;;5.66;60.87;93778.56;4998333;28;20184;-88
2021/03/20 05:39:32;;;;;;;53.97;32.55;;;;;;;5.52;60.98;93755.72;5015320;28;20033;-87
2021/03/20 05:42:22;;;;;;;48.03;32.83;;;;;;;5.68;60.32;93780.91;5017183;28;20063;-88
2021/03/20 05:45:06;;;;;;;50.63;31.30;;;;;;;5.61;60.34;93785.63;5014908;28;20045;-88
2021/03/20 05:47:59;;;;;;;50.05;33.25;;;;;;;5.46;60.71;93777.72;5015787;28;20148;-87
2021/03/20 05:50:51;;;;;;;47.15;30.92;;;;;;;5.54;61.58;93785.84;5009149;28;20046;-88
2021/03/20 05:53:47;;;;;;;48.83;30.45;;;;;;;5.61;62.58;93780.38;5015361;28;20048;-88
2021/03/20 05:56:34;;;;;;;48.70;30.65;;;;;;;5.68;62.75;93780.91;5012026;28;20088;-87
2021/03/20 05:59:21;;;;;;;50.20;30.75;;;;;;;5.58;62.68;93771.19;4994532;28;20401;-88
2021/03/20 06:01:53;;;;;;;50.60;30.67;;;;;;;5.73;62.23;93778.31;5012734;28;20046;-87
2021/03/20 06:04:40;;;;;;;50.20;31.35;;;;;;;5.62;62.73;93771.44;5001851;28;20095;-88
2021/03/20 06:07:14;;;;;;;53.10;33.33;;;;;;;5.68;62.01;93771.22;5006902;28;20026;-88
2021/03/20 06:09:47;;;;;;;54.28;33.97;;;;;;;5.35;61.86;93755.91;4997373;28;20025;-88
2021/03/20 06:12:41;;;;;;;52.92;33.08;;;;;;;5.33;63.06;93780.78;5012101;28;20045;-88
2021/03/20 06:15:17;;;;;;;55.38;33.85;;;;;;;5.35;63.30;93779.50;4997039;28;20087;-88
2021/03/20 06:18:22;;;;;;;48.92;31.92;;;;;;;5.04;63.54;93733.25;5011328;28;20077;-88
2021/03/20 06:20:53;;;;;;;50.33;32.85;;;;;;;5.32;63.82;93777.41;5006843;28;20068;-88
2021/03/20 06:23:40;;;;;;;51.95;32.63;;;;;;;5.15;64.59;93779.41;5012306;28;20057;-88
2021/03/20 06:26:14;;;;;;;58.45;32.80;;;;;;;5.16;64.78;93773.91;5012944;28;20045;-88
2021/03/20 06:28:59;;;;;;;49.75;32.35;;;;;;;5.00;65.30;93756.56;5014354;28;20045;-88
2021/03/20 06:31:35;;;;;;;54.87;33.43;;;;;;;4.98;65.36;93718.59;4999579;28;20046;-88
2021/03/20 06:34:01;;;;;;;55.08;34.17;;;;;;;5.47;63.96;93782.69;5001590;28;20023;-89
2021/03/20 06:36:42;;;;;;;58.15;34.60;;;;;;;5.38;64.28;93771.13;4991355;28;20046;-88
2021/03/20 06:39:34;;;;;;;57.92;32.80;;;;;;;5.41;64.80;93781.09;4992697;28;20155;-89
2021/03/20 06:42:07;;;;;;;48.08;31.05;;;;;;;5.31;63.94;93762.72;4985052;28;20042;-90
2021/03/20 06:44:38;;;;;;;54.58;32.78;;;;;;;5.25;64.25;93771.59;4978428;28;20038;-91
2021/03/20 06:47:32;;;;;;;52.47;30.98;;;;;;;5.48;63.74;93786.09;4966854;28;20042;-92
2021/03/20 06:50:18;;;;;;;49.72;30.40;;;;;;;5.43;64.18;93773.75;4968423;28;20049;-90
2021/03/20 06:52:49;;;;;;;47.00;29.00;;;;;;;5.21;64.73;93781.00;4970670;28;20541;-90
2021/03/20 06:55:38;;;;;;;53.53;33.85;;;;;;;5.07;66.28;93782.53;4993296;28;20044;-89
2021/03/20 06:58:12;;;;;;;53.10;32.58;;;;;;;4.80;66.34;93786.03;4990454;28;20498;-89
2021/03/20 07:00:38;;;;;;;69.03;38.28;;;;;;;4.76;67.99;93779.72;5010964;28;20024;-91
2021/03/20 07:03:25;;;;;;;61.55;35.22;;;;;;;5.13;67.37;93784.13;4972396;28;20046;-89
2021/03/20 07:06:25;;;;;;;40.08;27.77;;;;;;;5.04;65.81;93790.88;5007143;28;20679;-90
2021/03/20 07:08:54;;;;;;;44.13;28.83;;;;;;;5.05;64.89;93795.88;4965014;28;20052;-90
2021/03/20 07:11:30;;;;;;;42.05;26.65;;;;;;;5.15;65.91;93792.50;4992490;28;20045;-90
2021/03/20 07:14:03;;;;;;;41.42;26.90;;;;;;;5.02;65.94;93791.16;4979026;28;20046;-89
2021/03/20 08:24:10;;;;;;;42.85;27.80;;;;;;;5.76;68.34;93818.97;5068509;27;20394;-87
2021/03/20 08:27:13;;;;;;;46.40;30.10;;;;;;;5.73;69.43;93808.97;5004258;27;20132;-88
2021/03/20 08:30:12;;;;;;;43.83;29.65;;;;;;;5.74;70.13;93815.81;5040014;28;20037;-89
2021/03/20 08:33:02;;;;;;;57.90;35.50;;;;;;;5.50;68.82;93752.56;4974301;28;20432;-86
2021/03/20 08:36:15;;;;;;;39.92;26.42;;;;;;;5.65;68.57;93792.72;5022899;28;20072;-86
2021/03/20 08:39:01;;;;;;;46.55;28.35;;;;;;;5.39;68.02;93775.31;4933445;28;20050;-86
2021/03/20 08:41:30;;;;;;;43.42;28.83;;;;;;;5.78;67.74;93809.78;5047236;28;20048;-87
2021/03/20 08:44:26;;;;;;;43.78;26.40;;;;;;;5.84;67.10;93815.84;5038595;27;20394;-87
2021/03/20 08:47:28;;;;;;;45.50;30.15;;;;;;;5.32;67.30;93745.97;5031399;28;20029;-89
2021/03/20 08:50:21;;;;;;;45.10;30.42;;;;;;;5.66;67.65;93811.84;5029973;28;20041;-84
2021/03/20 08:53:33;;;;;;;51.70;29.17;;;;;;;5.46;68.01;93767.22;4999267;28;20037;-86
2021/03/20 08:56:24;;;;;;;46.60;30.75;;;;;;;6.02;68.16;93802.25;4977193;28;20772;-86
2021/03/20 08:58:57;;;;;;;50.60;28.33;;;;;;;6.05;66.23;93775.53;4964565;28;20426;-88
2021/03/20 09:01:35;;;;;;;38.50;25.33;;;;;;;6.22;65.34;93791.78;5025372;28;20033;-87
2021/03/20 09:04:04;;;;;;;39.20;26.52;;;;;;;6.21;65.47;93784.97;5021236;28;20048;-85
2021/03/20 09:07:03;;;;;;;37.70;25.88;;;;;;;6.19;64.51;93752.19;5018186;28;20036;-86
2021/03/20 09:09:51;;;;;;;34.17;24.60;;;;;;;6.06;64.41;93750.84;5051359;28;20095;-86
2021/03/20 09:12:28;;;;;;;42.15;25.98;;;;;;;6.48;65.30;93810.97;5017376;28;20037;-87
2021/03/20 09:24:04;;;;;;;34.33;23.55;;;;;;;6.35;67.67;93807.03;5017085;28;20484;-85
2021/03/20 09:40:41;;;;;;;35.13;25.25;;;;;;;6.51;69.78;93740.34;4890966;28;20043;-87
2021/03/20 09:43:47;;;;;;;40.05;26.70;;;;;;;6.99;67.22;93780.19;4926884;28;20039;-84
2021/03/20 09:46:34;;;;;;;38.33;26.58;;;;;;;7.05;69.08;93783.59;4927487;28;20129;-85
2021/03/20 09:49:24;;;;;;;39.13;27.55;;;;;;;7.09;70.08;93768.88;4908020;28;20758;-83
2021/03/20 09:52:45;;;;;;;39.88;26.52;;;;;;;6.98;68.26;93783.88;4847318;28;20490;-87
2021/03/20 09:55:57;;;;;;;37.47;25.65;;;;;;;6.70;70.53;93777.34;4891176;29;20126;-86
2021/03/20 09:59:25;;;;;;;37.15;26.50;;;;;;;6.91;70.01;93772.84;4847239;28;20235;-86
2021/03/20 10:01:51;;;;;;;29.77;22.23;;;;;;;7.06;67.83;93737.88;4853226;29;20040;-83
2021/03/20 10:04:55;;;;;;;33.10;24.65;;;;;;;6.88;69.29;93731.38;4919218;28;20045;-83
2021/03/20 10:07:21;;;;;;;34.83;24.02;;;;;;;6.88;69.14;93761.06;4927707;28;20046;-84
2021/03/20 10:10:11;;;;;;;31.77;22.75;;;;;;;7.33;67.26;93764.59;4934345;28;20050;-85
2021/03/20 10:13:11;;;;;;;28.75;21.45;;;;;;;7.11;67.19;93743.91;4912752;28;20520;-85
2021/03/20 10:15:53;;;;;;;29.77;21.75;;;;;;;6.98;66.00;93694.56;4876153;28;20522;-87
2021/03/20 10:21:39;;;;;;;27.95;19.45;;;;;;;7.19;63.92;93701.28;4916031;28;20055;-82
2021/03/20 10:24:28;;;;;;;29.00;20.30;;;;;;;7.59;63.68;93747.66;4920246;29;20113;-80
2021/03/20 10:27:26;;;;;;;27.50;19.30;;;;;;;7.58;63.36;93758.44;4937343;28;20057;-79
2021/03/20 10:29:53;;;;;;;27.95;20.25;;;;;;;7.53;63.35;93751.34;4926536;28;20509;-79
2021/03/20 10:32:22;;;;;;;29.48;22.70;;;;;;;7.46;63.95;93736.94;4951125;28;20039;-81
2021/03/20 10:34:57;;;;;;;29.58;21.17;;;;;;;7.57;64.27;93744.53;4953421;28;20515;-78
2021/03/20 10:37:34;;;;;;;27.92;21.00;;;;;;;7.58;63.31;93747.91;4933858;28;20046;-78
2021/03/20 10:40:08;;;;;;;28.60;20.73;;;;;;;7.67;63.44;93733.16;4956628;28;20042;-79
2021/03/20 10:42:38;;;;;;;27.23;18.88;;;;;;;7.64;62.34;93738.94;4949813;28;20540;-78
2021/03/20 10:45:29;;;;;;;28.17;19.88;;;;;;;7.48;64.15;93734.84;4941538;28;20081;-79
2021/03/20 10:48:14;;;;;;;23.80;18.13;;;;;;;7.44;64.15;93739.03;4954969;28;20140;-80
2021/03/20 10:50:44;;;;;;;;;;;;;;;7.33;64.47;93744.34;4949528;28;20039;-79
2021/03/20 10:53:20;;;;;;;27.67;20.42;;;;;;;7.44;67.48;93733.78;4940412;28;20012;-77
2021/03/20 10:55:57;;;;;;;28.20;20.17;;;;;;;7.42;66.16;93720.13;4941525;28;20055;-79
2021/03/20 10:58:39;;;;;;;23.30;17.60;;;;;;;7.50;65.44;93732.72;4913854;28;20031;-78
2021/03/20 11:01:06;;;;;;;20.35;16.08;;;;;;;7.48;65.26;93730.34;4934778;28;20043;-81
2021/03/20 11:03:46;;;;;;;24.33;18.38;;;;;;;7.42;65.78;93735.91;4933428;28;20297;-81
2021/03/20 11:06:15;;;;;;;19.23;15.60;;;;;;;7.34;62.90;93727.50;4951650;28;20490;-80
2021/03/20 11:08:42;;;;;;;20.23;15.55;;;;;;;7.45;62.76;93709.06;4934466;28;20047;-81
2021/03/20 11:11:13;;;;;;;22.45;18.13;;;;;;;7.66;63.59;93721.84;4936237;28;20066;-80
2021/03/20 11:13:48;;;;;;;20.50;14.52;;;;;;;7.54;63.95;93723.22;4927728;28;20137;-80
2021/03/20 11:16:15;;;;;;;26.40;19.83;;;;;;;7.49;66.98;93720.59;4921136;28;20039;-80
2021/03/20 11:19:19;;;;;;;21.85;17.95;;;;;;;7.37;66.28;93719.09;4934929;28;20035;-79
2021/03/20 11:21:59;;;;;;;23.67;17.80;;;;;;;7.22;67.18;93699.97;4927642;28;20046;-80
2021/03/20 11:24:24;;;;;;;23.05;16.13;;;;;;;6.64;67.62;93719.88;4952206;28;20077;-80
2021/03/20 11:26:52;;;;;;;22.35;16.77;;;;;;;6.56;67.79;93702.81;4956252;28;20409;-82
2021/03/20 11:29:22;;;;;;;18.27;14.32;;;;;;;6.54;66.81;93689.16;4941234;28;20517;-83
2021/03/20 11:31:59;;;;;;;20.35;15.88;;;;;;;6.40;68.58;93702.03;4922175;28;20032;-80
2021/03/20 11:34:37;;;;;;;22.17;17.40;;;;;;;6.46;68.52;93703.59;4918248;28;20043;-80
2021/03/20 11:37:05;;;;;;;26.65;18.48;;;;;;;6.63;69.35;93684.16;4934220;28;20105;-79
2021/03/20 11:39:31;;;;;;;21.10;16.88;;;;;;;6.80;68.46;93668.84;4906644;28;20097;-81
2021/03/20 11:42:02;;;;;;;22.38;15.95;;;;;;;6.61;68.19;93684.41;4907476;28;20023;-80
2021/03/20 11:44:30;;;;;;;21.48;16.58;;;;;;;6.71;67.15;93678.34;4929643;28;20462;-81
2021/03/20 11:46:59;;;;;;;20.02;14.77;;;;;;;6.86;66.18;93680.94;4929936;28;20157;-80
2021/03/20 11:49:47;;;;;;;20.85;16.17;;;;;;;6.56;67.35;93675.75;4940737;28;20046;-79
2021/03/20 11:52:19;;;;;;;21.73;16.17;;;;;;;6.82;66.12;93672.03;4940969;28;20070;-80
2021/03/20 11:54:45;;;;;;;19.00;15.43;;;;;;;6.57;65.40;93662.38;4941885;28;20429;-82
2021/03/20 11:57:11;;;;;;;19.23;14.80;;;;;;;6.73;66.27;93671.00;4944589;28;20041;-80
2021/03/20 11:59:39;;;;;;;18.38;15.45;;;;;;;6.61;68.25;93673.13;4950223;28;20543;-81
2021/03/20 12:02:10;;;;;;;23.35;17.80;;;;;;;6.55;69.91;93668.97;4939914;28;20046;-80
2021/03/20 12:04:36;;;;;;;22.73;17.45;;;;;;;6.41;69.17;93669.50;4939401;28;20063;-81
2021/03/20 12:07:20;;;;;;;22.58;16.23;;;;;;;6.27;69.72;93663.22;4936378;28;20046;-82
2021/03/20 12:09:45;;;;;;;20.33;15.93;;;;;;;6.15;70.09;93648.81;4933200;28;20042;-79
2021/03/20 12:12:11;;;;;;;21.58;16.55;;;;;;;5.97;70.60;93644.88;4933023;28;20035;-79
2021/03/20 12:14:47;;;;;;;21.73;17.08;;;;;;;6.22;71.45;93642.22;4941586;28;20069;-78
2021/03/20 12:17:17;;;;;;;20.10;15.68;;;;;;;5.90;68.71;93657.47;4934859;28;20098;-78
2021/03/20 12:19:57;;;;;;;23.60;15.55;;;;;;;5.82;70.85;93629.09;4941125;28;20070;-82
2021/03/20 12:22:51;;;;;;;20.20;16.15;;;;;;;5.66;70.40;93636.22;4917627;28;20043;-78
2021/03/20 12:25:19;;;;;;;22.08;16.88;;;;;;;5.61;73.46;93646.69;4938395;28;20042;-78
2021/03/20 12:27:47;;;;;;;24.35;17.48;;;;;;;5.59;73.57;93636.47;4942060;28;20067;-81
2021/03/20 12:30:27;;;;;;;21.75;16.33;;;;;;;5.44;73.86;93591.88;4930565;28;24833;-80
2021/03/20 12:33:11;;;;;;;22.05;16.52;;;;;;;5.67;75.24;93643.00;4932999;28;20039;-82
2021/03/20 12:35:39;;;;;;;22.42;15.98;;;;;;;5.74;75.22;93640.91;4922382;28;20051;-79
2021/03/20 12:38:12;;;;;;;22.17;16.88;;;;;;;5.73;74.50;93635.94;4921343;28;20054;-79
2021/03/20 12:40:40;;;;;;;18.38;14.50;;;;;;;5.60;73.60;93638.03;4944963;28;20456;-81
2021/03/20 12:43:14;;;;;;;21.15;16.60;;;;;;;5.45;76.05;93645.88;4949410;28;20501;-80
2021/03/20 12:45:40;;;;;;;22.45;16.13;;;;;;;5.54;75.25;93628.59;4932945;28;20174;-78
2021/03/20 12:48:08;;;;;;;36.22;22.30;;;;;;;5.44;75.98;93641.69;4955217;28;20031;-79
2021/03/20 12:50:33;;;;;;;48.75;25.05;;;;;;;5.28;77.63;93642.69;4950129;28;20050;-80
2021/03/20 12:52:59;;;;;;;133.32;59.08;;;;;;;5.32;78.95;93630.66;4950868;28;20066;-80
2021/03/20 12:55:24;;;;;;;62.30;30.60;;;;;;;5.46;77.85;93639.59;4938090;28;20047;-81
2021/03/20 12:57:50;;;;;;;44.33;24.48;;;;;;;5.29;77.89;93631.16;4946675;28;20058;-78
2021/03/20 13:00:19;;;;;;;27.33;20.83;;;;;;;5.27;78.66;93635.91;4935365;28;20482;-80
2021/03/20 13:02:45;;;;;;;34.15;21.58;;;;;;;5.19;78.51;93642.41;4957728;28;20022;-80
2021/03/20 13:05:18;;;;;;;27.58;20.30;;;;;;;5.04;78.74;93623.25;4954304;28;20097;-81
2021/03/20 13:07:43;;;;;;;30.20;20.42;;;;;;;5.14;79.09;93631.13;4954589;28;20038;-78
2021/03/20 13:10:09;;;;;;;34.90;20.70;;;;;;;5.21;77.47;93644.78;4956200;28;20723;-77
2021/03/20 13:12:35;;;;;;;25.42;17.92;;;;;;;5.23;77.16;93624.34;4953884;28;22664;-80
2021/03/20 13:15:03;;;;;;;25.63;19.00;;;;;;;5.25;76.20;93619.66;4956558;28;20065;-80
2021/03/20 13:17:33;;;;;;;20.85;16.23;;;;;;;5.13;74.85;93621.72;4953585;28;20054;-79
2021/03/20 13:19:59;;;;;;;21.23;15.07;;;;;;;4.98;74.29;93646.06;4953645;28;20047;-79
2021/03/20 13:22:24;;;;;;;23.95;17.80;;;;;;;5.21;75.92;93635.09;4953130;28;20514;-78
2021/03/20 13:24:50;;;;;;;45.40;30.02;;;;;;;5.33;77.18;93639.28;4954621;28;20039;-80
2021/03/20 13:27:15;;;;;;;18.67;15.15;;;;;;;5.21;75.61;93642.16;4935796;28;20031;-80
2021/03/20 13:29:41;;;;;;;26.38;19.20;;;;;;;5.28;77.58;93642.69;4948440;28;20205;-79
2021/03/20 13:32:07;;;;;;;19.60;16.27;;;;;;;5.09;77.81;93646.84;4951038;28;20187;-77
2021/03/20 13:34:32;;;;;;;27.23;18.30;;;;;;;4.84;80.38;93623.22;4951245;28;20031;-79
2021/03/20 13:36:58;;;;;;;26.42;18.17;;;;;;;4.69;80.10;93603.78;4954165;28;20085;-79
2021/03/20 13:39:23;;;;;;;27.85;19.95;;;;;;;4.72;81.37;93637.31;4953623;28;20430;-79